Time;durP1;ratioP1;P1;durP2;ratioP2;P2;SDS_P1;SDS_P2;PMS_P1;PMS_P2;Temp;Humidity;BMP_temperature;BMP_pressure;BME280_temperature;BME280_humidity;BME280_pressure;Samples;Min_cycle;Max_cycle;Signal;HPM_P1;HPM_P2
2022/10/26 00:01:52;;;;;;;2.10;1.80;;;;;;;20.20;58.08;96244.03;5034937;28;20207;-88
2022/10/26 00:04:19;;;;;;;2.92;1.70;;;;;;;20.20;58.77;96261.28;5062094;28;20257;-89
2022/10/26 00:06:46;;;;;;;2.05;1.38;;;;;;;20.14;58.10;96270.69;5042461;28;20224;-81
2022/10/26 00:09:13;;;;;;;4.63;1.70;;;;;;;20.19;57.62;96237.72;5046325;28;20300;-91
2022/10/26 00:11:40;;;;;;;2.67;1.70;;;;;;;20.42;57.01;96240.75;5062808;28;20253;-90
2022/10/26 00:14:07;;;;;;;2.15;1.42;;;;;;;20.38;57.55;96246.03;5050124;28;20238;-88
2022/10/26 00:16:36;;;;;;;2.78;1.67;;;;;;;20.57;55.64;96248.78;5052998;28;20208;-86
2022/10/26 00:19:03;;;;;;;3.28;1.60;;;;;;;20.68;55.31;96228.28;5053030;28;20218;-87
2022/10/26 00:21:30;;;;;;;1.58;1.45;;;;;;;20.69;55.26;96232.66;5048446;28;20202;-89
2022/10/26 00:23:58;;;;;;;3.47;1.70;;;;;;;20.62;55.76;96227.56;5046493;28;20219;-87
2022/10/26 00:26:25;;;;;;;4.88;1.50;;;;;;;20.62;55.95;96246.75;5055904;28;20242;-88
2022/10/26 00:28:53;;;;;;;1.83;1.40;;;;;;;20.53;56.12;96237.56;5035909;28;20217;-89
2022/10/26 00:31:21;;;;;;;1.90;1.30;;;;;;;20.67;55.60;96215.72;5046989;28;20198;-87
2022/10/26 00:33:52;;;;;;;2.72;1.50;;;;;;;20.68;55.31;96239.28;5048838;28;20221;-87
2022/10/26 00:36:19;;;;;;;2.13;1.40;;;;;;;20.60;55.97;96226.22;5034186;28;20207;-85
2022/10/26 00:38:49;;;;;;;4.65;1.52;;;;;;;20.61;56.26;96234.16;5059446;28;20213;-89
2022/10/26 00:41:18;;;;;;;1.50;1.35;;;;;;;20.59;56.62;96224.59;5046869;28;20202;-89
2022/10/26 00:43:45;;;;;;;2.90;1.80;;;;;;;20.53;57.27;96228.53;5038333;28;20219;-87
2022/10/26 00:46:16;;;;;;;3.30;1.45;;;;;;;20.56;56.41;96227.94;5049889;28;20214;-85
2022/10/26 00:48:46;;;;;;;1.60;1.40;;;;;;;20.57;56.34;96219.41;5039035;28;20213;-89
2022/10/26 00:51:23;;;;;;;3.15;1.50;;;;;;;20.59;56.37;96213.63;5046677;28;20214;-87
2022/10/26 00:53:51;;;;;;;4.32;1.55;;;;;;;20.51;56.18;96206.06;5043981;28;20249;-89
2022/10/26 00:56:19;;;;;;;3.42;1.40;;;;;;;20.53;56.32;96217.56;5061577;28;20199;-89
2022/10/26 00:58:47;;;;;;;1.85;1.27;;;;;;;20.47;56.88;96233.28;5039619;28;20210;-87
2022/10/26 01:01:14;;;;;;;2.17;1.50;;;;;;;20.38;57.10;96224.91;5053296;28;20264;-89
2022/10/26 01:03:42;;;;;;;2.08;1.20;;;;;;;20.41;56.25;96200.75;5043666;28;20347;-86
2022/10/26 01:06:11;;;;;;;2.50;1.30;;;;;;;20.43;55.92;96210.28;5044098;28;20237;-89
2022/10/26 01:08:41;;;;;;;2.05;1.38;;;;;;;20.69;54.38;96192.34;5045528;28;20230;-87
2022/10/26 01:11:10;;;;;;;2.00;1.10;;;;;;;20.56;55.22;96178.56;5044125;28;20231;-86
2022/10/26 01:13:37;;;;;;;1.60;1.42;;;;;;;20.55;54.77;96179.69;5052850;28;20245;-88
2022/10/26 01:16:23;;;;;;;1.60;1.40;;;;;;;20.73;54.14;96156.91;5036229;28;20232;-85
2022/10/26 01:18:58;;;;;;;1.60;1.30;;;;;;;20.72;54.16;96175.28;5044232;28;20225;-83
2022/10/26 01:21:41;;;;;;;1.80;1.67;;;;;;;20.69;54.41;96175.88;5038930;28;20210;-89
2022/10/26 01:24:58;;;;;;;2.60;1.65;;;;;;;20.63;55.01;96196.28;5040404;28;20333;-89
2022/10/26 01:27:32;;;;;;;3.70;1.30;;;;;;;20.50;55.26;96186.03;5012697;28;20213;-88
2022/10/26 01:30:23;;;;;;;3.03;1.20;;;;;;;20.48;55.22;96190.22;5044110;28;20211;-85
2022/10/26 01:33:23;;;;;;;2.38;1.33;;;;;;;20.67;53.88;96182.78;5033192;28;20210;-85
2022/10/26 01:35:58;;;;;;;2.30;1.38;;;;;;;20.60;54.39;96204.28;5036191;28;20214;-87
2022/10/26 01:38:33;;;;;;;3.05;1.30;;;;;;;20.71;53.66;96208.50;5053280;28;20251;-83
2022/10/26 01:41:09;;;;;;;2.40;1.13;;;;;;;20.73;53.36;96242.78;5042809;28;20210;-87
2022/10/26 01:43:41;;;;;;;2.28;1.25;;;;;;;20.83;53.19;96280.22;5042182;28;20217;-88
2022/10/26 01:46:11;;;;;;;2.63;1.48;;;;;;;20.81;54.22;96320.88;5038132;28;20206;-84
2022/10/26 01:48:41;;;;;;;4.57;1.63;;;;;;;20.71;54.58;96310.84;5050486;28;20226;-88
2022/10/26 01:51:12;;;;;;;5.30;1.35;;;;;;;20.60;57.25;96300.28;5045971;28;20234;-88
2022/10/26 01:53:45;;;;;;;6.45;1.48;;;;;;;20.41;58.95;96299.47;5043798;28;20223;-87
2022/10/26 01:56:18;;;;;;;2.55;1.42;;;;;;;20.09;65.27;96303.63;5037309;28;20208;-86
2022/10/26 01:59:19;;;;;;;3.55;1.40;;;;;;;18.74;86.42;96332.69;5035519;28;20267;-87
2022/10/26 02:02:19;;;;;;;6.90;2.17;;;;;;;17.57;95.98;96321.31;5060493;28;20234;-87
2022/10/26 02:05:03;;;;;;;6.27;1.57;;;;;;;17.08;100.00;96314.78;5034689;28;20227;-88
2022/10/26 02:07:38;;;;;;;3.07;1.60;;;;;;;16.76;100.00;96301.38;5037914;28;20233;-88
2022/10/26 02:10:16;;;;;;;3.77;1.67;;;;;;;16.17;100.00;96318.06;5056742;28;20251;-88
2022/10/26 02:12:52;;;;;;;2.67;1.80;;;;;;;15.95;100.00;96311.97;5052555;28;20261;-89
2022/10/26 02:15:23;;;;;;;3.77;1.43;;;;;;;15.76;100.00;96320.59;5050923;28;20213;-88
2022/10/26 02:17:58;;;;;;;6.73;1.60;;;;;;;15.71;100.00;96312.41;5042224;28;20202;-89
2022/10/26 02:20:28;;;;;;;4.60;2.10;;;;;;;15.67;100.00;96316.72;5042162;28;20206;-88
2022/10/26 02:22:56;;;;;;;4.43;1.70;;;;;;;15.63;100.00;96320.25;5047515;28;20301;-87
2022/10/26 02:25:27;;;;;;;2.20;1.70;;;;;;;15.56;100.00;96325.91;5051513;28;20194;-89
2022/10/26 02:27:58;;;;;;;3.87;1.90;;;;;;;15.52;100.00;96319.31;5050046;28;20240;-88
2022/10/26 02:30:25;;;;;;;5.13;2.00;;;;;;;15.46;100.00;96314.94;5041120;28;20234;-88
2022/10/26 02:32:58;;;;;;;1.83;1.50;;;;;;;15.26;100.00;96325.66;5037614;28;20195;-88
2022/10/26 02:35:32;;;;;;;3.73;1.60;;;;;;;15.21;100.00;96342.75;5050251;28;20211;-87
2022/10/26 02:38:01;;;;;;;2.83;1.60;;;;;;;15.11;100.00;96339.94;5032921;28;20203;-87
2022/10/26 02:40:30;;;;;;;8.00;1.87;;;;;;;15.04;100.00;96350.22;5046767;28;20198;-89
2022/10/26 02:43:02;;;;;;;4.57;1.77;;;;;;;14.96;100.00;96367.00;5033529;28;20198;-87
2022/10/26 02:45:34;;;;;;;3.90;1.80;;;;;;;14.96;100.00;96403.19;5045252;28;20210;-88
2022/10/26 02:48:02;;;;;;;2.80;1.63;;;;;;;15.07;100.00;96445.69;5054085;28;20206;-88
2022/10/26 02:50:35;;;;;;;3.10;2.20;;;;;;;15.29;100.00;96466.59;5053115;28;20286;-88
2022/10/26 02:53:11;;;;;;;6.20;2.43;;;;;;;15.55;100.00;96503.06;5034907;28;20210;-84
2022/10/26 02:55:45;;;;;;;4.10;2.03;;;;;;;15.73;100.00;96532.66;5036697;28;20211;-87
2022/10/26 02:58:16;;;;;;;3.53;1.90;;;;;;;15.79;100.00;96540.59;5042057;28;20194;-87
2022/10/26 03:00:44;;;;;;;4.83;1.97;;;;;;;16.08;100.00;96557.44;5039381;28;20203;-87
2022/10/26 03:03:14;;;;;;;4.67;2.10;;;;;;;16.18;100.00;96564.88;5037178;28;20207;-87
2022/10/26 03:05:43;;;;;;;5.17;1.93;;;;;;;16.24;100.00;96569.31;5051383;28;20206;-88
2022/10/26 03:08:10;;;;;;;3.50;2.00;;;;;;;16.31;100.00;96586.25;5050483;28;20198;-86
2022/10/26 03:10:41;;;;;;;3.87;1.90;;;;;;;16.31;100.00;96596.34;5047904;28;20250;-88
2022/10/26 03:13:09;;;;;;;2.97;1.80;;;;;;;16.19;100.00;96596.50;5047963;28;20261;-87
2022/10/26 03:15:36;;;;;;;3.37;1.80;;;;;;;16.14;100.00;96583.66;5036324;28;20209;-86
2022/10/26 03:18:03;;;;;;;3.17;2.43;;;;;;;15.82;100.00;96575.44;5055709;28;20299;-88
2022/10/26 03:20:32;;;;;;;2.00;1.70;;;;;;;15.54;100.00;96577.63;5034154;28;20222;-89
2022/10/26 03:22:59;;;;;;;3.07;1.80;;;;;;;15.40;100.00;96604.38;5037870;28;20203;-87
2022/10/26 03:25:26;;;;;;;5.70;2.10;;;;;;;15.12;100.00;96602.69;5033261;28;20222;-87
2022/10/26 03:27:58;;;;;;;2.47;1.97;;;;;;;14.85;100.00;96608.03;5043083;28;20268;-81
2022/10/26 03:30:26;;;;;;;4.37;2.00;;;;;;;14.74;100.00;96603.53;5054219;28;20214;-87
2022/10/26 03:32:53;;;;;;;4.30;2.10;;;;;;;14.70;100.00;96605.94;5039779;28;20198;-86
2022/10/26 03:35:21;;;;;;;3.90;1.87;;;;;;;14.66;100.00;96614.81;5051402;28;20293;-86
2022/10/26 03:37:49;;;;;;;5.00;1.90;;;;;;;14.68;100.00;96623.56;5038929;28;20191;-86
2022/10/26 03:40:17;;;;;;;3.67;2.03;;;;;;;14.63;100.00;96639.78;5044861;28;20202;-87
2022/10/26 03:42:44;;;;;;;3.40;2.43;;;;;;;14.54;100.00;96633.97;5048488;28;20198;-82
2022/10/26 03:45:11;;;;;;;6.37;2.10;;;;;;;14.44;100.00;96638.41;5037769;28;20257;-87
2022/10/26 03:47:44;;;;;;;3.63;1.90;;;;;;;14.39;100.00;96639.94;5040454;28;20193;-87
2022/10/26 03:50:13;;;;;;;4.17;2.10;;;;;;;14.44;100.00;96638.41;5038158;28;20261;-86
2022/10/26 03:52:40;;;;;;;6.87;2.43;;;;;;;14.36;100.00;96620.59;5045862;28;20210;-85
2022/10/26 03:55:10;;;;;;;5.43;2.00;;;;;;;14.39;100.00;96620.94;5049188;28;20285;-86
2022/10/26 03:57:42;;;;;;;6.10;2.50;;;;;;;14.33;100.00;96616.47;5039792;28;20253;-87
2022/10/26 04:00:11;;;;;;;5.53;1.77;;;;;;;14.25;100.00;96607.91;5051202;28;20211;-87
2022/10/26 04:02:42;;;;;;;2.67;1.70;;;;;;;14.29;100.00;96612.59;5041804;28;20257;-88
2022/10/26 04:05:10;;;;;;;3.73;2.67;;;;;;;14.31;100.00;96613.16;5035334;28;20313;-87
2022/10/26 04:07:37;;;;;;;4.63;2.53;;;;;;;14.22;100.00;96601.06;5048085;28;20214;-87
2022/10/26 04:10:05;;;;;;;2.40;1.93;;;;;;;14.29;100.00;96607.16;5047884;28;20225;-87
2022/10/26 04:12:36;;;;;;;5.07;2.07;;;;;;;14.34;100.00;96601.81;5047899;28;20239;-85
2022/10/26 04:15:05;;;;;;;3.30;2.30;;;;;;;14.25;100.00;96602.47;5054038;28;20209;-87
2022/10/26 04:17:32;;;;;;;3.10;2.27;;;;;;;14.23;100.00;96613.59;5053634;28;20199;-80
2022/10/26 04:19:59;;;;;;;4.30;2.17;;;;;;;14.27;100.00;96628.31;5043067;28;20206;-87
2022/10/26 04:22:26;;;;;;;3.70;2.50;;;;;;;14.21;100.00;96629.28;5056709;28;20202;-87
2022/10/26 04:24:54;;;;;;;5.20;2.47;;;;;;;14.17;100.00;96633.59;5052824;28;20234;-88
2022/10/26 04:27:21;;;;;;;4.17;2.53;;;;;;;14.10;100.00;96643.78;5062352;28;20194;-86
2022/10/26 04:29:50;;;;;;;4.23;2.33;;;;;;;14.15;100.00;96668.31;5043491;28;20202;-85
2022/10/26 04:32:17;;;;;;;3.00;2.30;;;;;;;14.15;100.00;96700.91;5042450;28;20199;-87
2022/10/26 04:34:44;;;;;;;4.50;2.47;;;;;;;14.18;100.00;96722.16;5050726;28;20193;-86
2022/10/26 04:37:12;;;;;;;4.43;2.67;;;;;;;14.31;100.00;96721.81;5045762;28;20195;-84
2022/10/26 04:39:39;;;;;;;6.80;2.67;;;;;;;14.30;100.00;96703.03;5042373;28;20206;-87
2022/10/26 04:42:08;;;;;;;5.43;2.63;;;;;;;14.24;100.00;96704.84;5040756;28;20214;-80
2022/10/26 04:44:35;;;;;;;4.07;2.47;;;;;;;14.27;100.00;96707.09;5056196;28;20272;-87
2022/10/26 04:47:03;;;;;;;5.40;2.73;;;;;;;14.18;100.00;96705.84;5053581;28;20216;-85
2022/10/26 04:49:30;;;;;;;4.37;2.80;;;;;;;14.23;100.00;96705.94;5042535;28;20194;-83
2022/10/26 04:51:57;;;;;;;7.63;2.77;;;;;;;14.21;100.00;96691.75;5046745;28;20206;-86
2022/10/26 04:54:24;;;;;;;6.30;2.30;;;;;;;14.12;100.00;96685.06;5064193;28;20199;-87
2022/10/26 04:56:52;;;;;;;7.23;2.07;;;;;;;14.14;100.00;96677.50;5062436;28;20311;-87
2022/10/26 04:59:19;;;;;;;7.40;2.10;;;;;;;14.29;100.00;96658.75;5050007;28;20199;-86
2022/10/26 05:01:46;;;;;;;4.17;2.03;;;;;;;14.33;100.00;96662.66;5045328;28;20206;-83
2022/10/26 05:04:14;;;;;;;3.83;2.30;;;;;;;14.50;100.00;96646.38;5033536;28;20309;-85
2022/10/26 05:06:41;;;;;;;4.27;1.80;;;;;;;14.60;100.00;96638.38;5034485;28;20202;-86
2022/10/26 05:09:08;;;;;;;3.90;2.23;;;;;;;14.64;100.00;96612.34;5042888;28;20210;-83
2022/10/26 05:11:35;;;;;;;6.30;1.80;;;;;;;14.67;100.00;96600.16;5044262;28;20219;-86
2022/10/26 05:14:03;;;;;;;2.83;1.70;;;;;;;14.76;100.00;96612.25;5038768;28;20237;-87
2022/10/26 05:16:30;;;;;;;3.80;2.00;;;;;;;14.89;100.00;96576.53;5043677;28;20213;-85
2022/10/26 05:18:57;;;;;;;5.03;1.70;;;;;;;15.11;100.00;96582.81;5045960;28;20210;-87
2022/10/26 05:21:25;;;;;;;5.43;2.10;;;;;;;15.08;100.00;96564.28;5055888;28;20206;-84
2022/10/26 05:23:54;;;;;;;3.33;1.60;;;;;;;15.32;100.00;96542.25;5034780;28;20210;-84
2022/10/26 05:26:22;;;;;;;4.17;1.70;;;;;;;15.51;100.00;96554.44;5061554;28;20202;-86
2022/10/26 05:28:49;;;;;;;3.83;1.60;;;;;;;15.49;100.00;96553.84;5034518;28;20206;-87
2022/10/26 05:31:16;;;;;;;4.90;1.93;;;;;;;15.38;100.00;96557.56;5044762;28;20209;-86
2022/10/26 05:33:43;;;;;;;4.20;2.10;;;;;;;15.09;100.00;96559.66;5043469;28;20295;-87
2022/10/26 05:36:10;;;;;;;5.43;1.90;;;;;;;14.93;100.00;96550.50;5047079;28;20202;-87
2022/10/26 05:38:39;;;;;;;2.10;1.70;;;;;;;14.70;100.00;96545.31;5049470;28;20206;-88
2022/10/26 05:41:06;;;;;;;3.40;1.87;;;;;;;14.55;100.00;96545.06;5031941;28;20206;-86
2022/10/26 05:43:33;;;;;;;2.73;1.50;;;;;;;15.02;100.00;96556.31;5052844;28;20292;-88
2022/10/26 05:46:00;;;;;;;2.60;1.90;;;;;;;15.25;100.00;96549.78;5039932;28;20317;-85
2022/10/26 05:48:27;;;;;;;8.53;2.00;;;;;;;15.04;100.00;96546.84;5041926;28;20210;-83
2022/10/26 05:50:54;;;;;;;4.10;2.20;;;;;;;14.92;100.00;96532.53;5042747;28;20245;-88
2022/10/26 05:53:21;;;;;;;4.63;2.70;;;;;;;14.86;100.00;96549.06;5039746;28;20301;-85
2022/10/26 05:55:50;;;;;;;4.97;1.70;;;;;;;14.64;100.00;96519.94;5034979;28;20344;-87
2022/10/26 05:58:18;;;;;;;3.27;2.07;;;;;;;14.56;100.00;96528.53;5035589;28;20322;-88
2022/10/26 06:00:58;;;;;;;3.07;1.90;;;;;;;14.58;100.00;96544.59;5053220;28;20210;-86
2022/10/26 06:03:38;;;;;;;3.53;1.97;;;;;;;14.59;100.00;96546.25;5042806;28;20194;-85
2022/10/26 06:06:08;;;;;;;2.83;1.67;;;;;;;14.53;100.00;96556.22;5054360;28;20230;-87
2022/10/26 06:08:35;;;;;;;4.93;1.97;;;;;;;14.46;100.00;96562.91;5039407;28;20212;-87
2022/10/26 06:11:06;;;;;;;3.23;1.87;;;;;;;14.38;100.00;96574.97;5030379;28;20272;-87
2022/10/26 06:13:34;;;;;;;3.90;1.70;;;;;;;14.39;100.00;96574.75;5033412;28;20316;-87
2022/10/26 06:16:12;;;;;;;4.23;1.80;;;;;;;14.31;100.00;96575.13;5042928;28;20194;-87
2022/10/26 06:18:49;;;;;;;3.80;1.80;;;;;;;14.34;100.00;96576.53;5033264;28;20217;-85
2022/10/26 06:21:31;;;;;;;4.10;1.80;;;;;;;14.38;100.00;96613.84;5037936;28;20233;-88
2022/10/26 06:24:04;;;;;;;5.93;1.67;;;;;;;14.29;100.00;96612.59;5041633;28;20223;-88
2022/10/26 06:26:40;;;;;;;3.50;1.50;;;;;;;14.33;100.00;96632.75;5044148;28;20198;-86
2022/10/26 06:29:22;;;;;;;4.13;1.83;;;;;;;14.31;100.00;96639.50;5044023;28;20208;-86
2022/10/26 06:31:50;;;;;;;4.07;1.73;;;;;;;14.34;100.00;96639.03;5041879;28;20202;-85
2022/10/26 06:34:26;;;;;;;6.03;2.07;;;;;;;14.50;100.00;96640.13;5042926;28;20195;-86
2022/10/26 06:36:55;;;;;;;4.40;2.00;;;;;;;14.46;100.00;96631.63;5038328;28;20214;-86
2022/10/26 06:39:22;;;;;;;2.63;1.67;;;;;;;14.39;100.00;96614.69;5040891;28;20198;-84
2022/10/26 06:41:51;;;;;;;4.63;2.00;;;;;;;14.25;100.00;96611.44;5052250;28;20248;-87
2022/10/26 06:44:23;;;;;;;2.97;1.60;;;;;;;14.23;100.00;96610.03;5054351;28;20236;-84
2022/10/26 06:46:58;;;;;;;3.73;1.60;;;;;;;14.19;100.00;96604.28;5031784;28;20305;-86
2022/10/26 06:49:32;;;;;;;3.93;1.80;;;;;;;14.22;100.00;96598.34;5042040;28;20229;-85
2022/10/26 06:52:02;;;;;;;3.27;1.77;;;;;;;14.23;100.00;96604.59;5039132;28;20292;-87
2022/10/26 06:54:45;;;;;;;2.07;1.57;;;;;;;14.28;100.00;96616.41;5037523;28;20207;-86
2022/10/26 06:57:15;;;;;;;2.53;1.70;;;;;;;14.30;100.00;96619.66;5037907;28;20202;-86
2022/10/26 06:59:47;;;;;;;2.70;1.40;;;;;;;14.19;100.00;96593.44;5042820;28;20229;-83
2022/10/26 07:02:15;;;;;;;3.20;1.60;;;;;;;14.48;100.00;96617.78;5040317;28;20241;-86
2022/10/26 07:04:42;;;;;;;1.33;1.20;;;;;;;14.77;100.00;96612.00;5043167;28;20221;-85
2022/10/26 07:07:09;;;;;;;1.80;1.30;;;;;;;14.75;100.00;96613.31;5041278;28;20266;-83
2022/10/26 07:09:36;;;;;;;1.60;1.10;;;;;;;15.01;100.00;96607.16;5055633;28;20245;-86
2022/10/26 07:12:05;;;;;;;1.97;1.30;;;;;;;15.33;100.00;96609.19;5036496;28;20290;-85
2022/10/26 07:14:33;;;;;;;1.10;1.00;;;;;;;15.59;100.00;96596.72;5029783;28;20206;-84
2022/10/26 07:17:00;;;;;;;1.70;1.30;;;;;;;15.78;100.00;96603.47;5042471;28;20221;-85
2022/10/26 07:19:27;;;;;;;1.03;0.93;;;;;;;15.95;100.00;96584.31;5031350;28;20509;-84
2022/10/26 07:21:55;;;;;;;3.33;1.20;;;;;;;16.03;100.00;96603.72;5037250;28;20218;-87
2022/10/26 07:24:22;;;;;;;5.20;1.30;;;;;;;16.17;100.00;96604.09;5052009;28;20198;-87
2022/10/26 07:26:50;;;;;;;2.43;1.47;;;;;;;16.25;100.00;96592.72;5036433;28;20209;-86
2022/10/26 07:29:17;;;;;;;1.63;1.03;;;;;;;16.41;100.00;96596.41;5043317;28;20195;-87
2022/10/26 07:31:45;;;;;;;2.33;1.30;;;;;;;16.44;100.00;96604.06;5042486;28;20217;-87
2022/10/26 07:34:12;;;;;;;1.93;1.30;;;;;;;16.29;100.00;96599.31;5048937;28;20202;-85
2022/10/26 07:36:40;;;;;;;3.10;1.30;;;;;;;16.25;100.00;96598.16;5033303;28;20230;-86
2022/10/26 07:39:07;;;;;;;3.10;1.30;;;;;;;15.86;100.00;96606.56;5049735;28;20202;-87
2022/10/26 07:41:35;;;;;;;4.50;1.40;;;;;;;15.61;100.00;96595.41;5039372;28;20207;-85
2022/10/26 07:44:02;;;;;;;3.10;2.07;;;;;;;15.46;100.00;96592.50;5042981;28;20194;-88
2022/10/26 07:46:31;;;;;;;3.80;2.13;;;;;;;15.36;100.00;96592.38;5048870;28;20240;-86
2022/10/26 07:49:00;;;;;;;3.43;1.70;;;;;;;15.22;100.00;96582.97;5043175;28;20210;-87
2022/10/26 07:51:27;;;;;;;5.20;3.20;;;;;;;15.15;100.00;96591.28;5058768;28;20312;-88
2022/10/26 07:53:54;;;;;;;3.47;1.77;;;;;;;15.07;100.00;96594.44;5037901;28;20305;-86
2022/10/26 07:56:21;;;;;;;2.97;2.10;;;;;;;15.14;100.00;96581.50;5035484;28;20206;-82
2022/10/26 07:58:48;;;;;;;2.20;1.40;;;;;;;15.14;100.00;96593.19;5039893;28;20198;-88
2022/10/26 08:01:16;;;;;;;3.57;1.10;;;;;;;15.19;100.00;96602.50;5039467;28;20206;-85
2022/10/26 08:03:43;;;;;;;3.67;1.40;;;;;;;15.20;100.00;96618.56;5059596;28;20202;-84
2022/10/26 08:06:12;;;;;;;4.00;1.30;;;;;;;15.33;100.00;96614.63;5050680;28;20268;-88
2022/10/26 08:08:39;;;;;;;2.33;1.30;;;;;;;15.27;100.00;96615.66;5035960;28;20207;-88
2022/10/26 08:11:09;;;;;;;1.47;1.10;;;;;;;15.25;100.00;96626.78;5035480;28;20317;-87
2022/10/26 08:13:38;;;;;;;2.43;1.30;;;;;;;15.39;100.00;96630.78;5047685;28;20264;-87
2022/10/26 08:16:08;;;;;;;2.93;1.10;;;;;;;15.49;100.00;96636.31;5051023;28;20233;-88
2022/10/26 08:18:35;;;;;;;2.93;1.20;;;;;;;15.57;100.00;96635.09;5059297;28;20206;-88
2022/10/26 08:21:04;;;;;;;2.90;1.07;;;;;;;15.61;100.00;96641.66;5041694;28;20213;-89
2022/10/26 08:23:33;;;;;;;3.20;1.20;;;;;;;15.50;100.00;96627.09;5037197;28;20206;-85
2022/10/26 08:26:04;;;;;;;2.57;1.30;;;;;;;15.43;100.00;96631.91;5044397;28;20222;-88
2022/10/26 08:28:31;;;;;;;3.00;1.40;;;;;;;15.37;100.00;96632.09;5054756;28;20202;-89
2022/10/26 08:30:59;;;;;;;2.40;1.20;;;;;;;15.33;100.00;96629.06;5045900;28;20206;-87
2022/10/26 08:33:26;;;;;;;4.90;1.57;;;;;;;15.27;100.00;96630.06;5041430;28;20237;-86
2022/10/26 08:35:56;;;;;;;4.30;1.63;;;;;;;15.43;100.00;96650.13;5065592;28;20206;-90
2022/10/26 08:38:23;;;;;;;2.03;1.20;;;;;;;15.35;100.00;96645.97;5047457;28;20210;-84
2022/10/26 08:40:53;;;;;;;2.47;1.20;;;;;;;15.30;100.00;96636.91;5051822;28;20408;-89
2022/10/26 08:43:26;;;;;;;3.13;1.70;;;;;;;15.27;100.00;96627.34;5041938;28;20202;-86
2022/10/26 08:45:59;;;;;;;3.73;1.50;;;;;;;15.26;100.00;96628.44;5045130;28;20226;-87
2022/10/26 08:48:32;;;;;;;1.40;1.30;;;;;;;15.29;100.00;96640.72;5041581;28;20207;-84
2022/10/26 08:51:02;;;;;;;1.83;1.47;;;;;;;15.27;100.00;96630.06;5039494;28;20292;-82
2022/10/26 08:53:33;;;;;;;3.17;1.50;;;;;;;15.39;100.00;96649.00;5046830;28;20202;-88
2022/10/26 08:56:09;;;;;;;3.37;1.40;;;;;;;15.31;100.00;96627.69;5042650;28;20306;-87
2022/10/26 08:58:40;;;;;;;8.17;1.40;;;;;;;15.40;100.00;96637.03;5047527;28;20208;-88
2022/10/26 09:01:09;;;;;;;2.67;2.07;;;;;;;15.43;100.00;96640.06;5043263;28;20217;-88
2022/10/26 09:03:36;;;;;;;2.50;1.67;;;;;;;15.41;100.00;96634.06;5044519;28;20273;-86
2022/10/26 09:06:17;;;;;;;3.30;1.70;;;;;;;15.42;100.00;96645.75;5035918;28;20230;-88
2022/10/26 09:08:54;;;;;;;4.00;1.57;;;;;;;15.41;100.00;96649.56;5039437;28;20319;-89
2022/10/26 09:11:39;;;;;;;3.00;2.10;;;;;;;15.42;100.00;96643.88;5048077;28;20214;-85
2022/10/26 09:14:18;;;;;;;2.60;1.47;;;;;;;15.32;100.00;96630.13;5053237;28;20238;-88
2022/10/26 09:16:57;;;;;;;2.77;1.57;;;;;;;15.40;100.00;96656.88;5047923;28;20208;-86
2022/10/26 09:19:56;;;;;;;4.17;1.73;;;;;;;15.42;100.00;96660.19;5054356;28;20237;-87
2022/10/26 09:22:31;;;;;;;3.73;1.60;;;;;;;15.41;100.00;96655.81;5046916;28;20206;-85
2022/10/26 09:25:06;;;;;;;2.63;1.73;;;;;;;15.33;100.00;96653.53;5048383;28;20214;-87
2022/10/26 09:27:41;;;;;;;3.20;1.73;;;;;;;15.35;100.00;96666.91;5046527;28;20198;-88
2022/10/26 09:30:15;;;;;;;3.27;1.27;;;;;;;15.42;100.00;96659.38;5040330;28;20211;-88
2022/10/26 09:32:45;;;;;;;2.10;1.33;;;;;;;15.31;100.00;96655.69;5044515;28;20205;-86
2022/10/26 09:35:17;;;;;;;6.77;1.50;;;;;;;15.29;100.00;96667.91;5055335;28;20203;-87
2022/10/26 09:37:49;;;;;;;2.33;1.33;;;;;;;15.26;100.00;96662.97;5045923;28;20209;-88
2022/10/26 09:40:21;;;;;;;2.70;1.30;;;;;;;15.30;100.00;96675.84;5038480;28;20261;-89
2022/10/26 09:42:57;;;;;;;4.87;1.60;;;;;;;15.32;100.00;96691.88;5060628;28;20207;-88
2022/10/26 09:45:29;;;;;;;5.53;1.43;;;;;;;15.26;100.00;96684.72;5043359;28;20226;-89
2022/10/26 09:48:01;;;;;;;2.50;1.50;;;;;;;15.33;100.00;96697.06;5045519;28;20279;-87
2022/10/26 09:50:33;;;;;;;3.27;1.57;;;;;;;15.36;100.00;96679.44;5057801;28;20211;-89
2022/10/26 09:53:00;;;;;;;2.10;1.60;;;;;;;15.36;100.00;96698.47;5033467;28;20206;-84
2022/10/26 09:55:27;;;;;;;3.50;1.70;;;;;;;15.39;100.00;96706.16;5045712;28;20195;-87
2022/10/26 09:57:59;;;;;;;4.77;1.90;;;;;;;15.46;100.00;96723.09;5040530;28;20206;-88
2022/10/26 10:00:28;;;;;;;6.03;1.93;;;;;;;15.47;100.00;96735.66;5036363;28;20203;-85
2022/10/26 10:02:56;;;;;;;6.60;2.67;;;;;;;15.54;100.00;96724.59;5036442;28;20217;-87
2022/10/26 10:05:29;;;;;;;7.03;2.43;;;;;;;15.57;100.00;96708.56;5044159;28;20199;-85
2022/10/26 10:08:18;;;;;;;5.57;2.50;;;;;;;15.69;100.00;96727.50;5042684;28;20234;-86
2022/10/26 10:11:00;;;;;;;5.63;2.40;;;;;;;15.78;100.00;96737.72;5044834;28;20314;-82
2022/10/26 10:13:31;;;;;;;7.97;2.50;;;;;;;15.85;100.00;96742.94;5048135;28;20230;-88
2022/10/26 10:16:06;;;;;;;3.77;2.30;;;;;;;15.85;100.00;96732.88;5058607;28;20266;-88
2022/10/26 10:18:34;;;;;;;5.77;2.80;;;;;;;15.95;100.00;96731.38;5053793;28;20198;-88
2022/10/26 10:21:01;;;;;;;7.20;2.80;;;;;;;15.98;100.00;96741.75;5043280;28;20206;-89
2022/10/26 10:23:31;;;;;;;4.80;3.30;;;;;;;15.99;100.00;96744.19;5038763;28;20210;-89
2022/10/26 10:26:01;;;;;;;3.93;2.80;;;;;;;16.05;100.00;96751.38;5044135;28;20217;-87
2022/10/26 10:28:30;;;;;;;9.00;3.03;;;;;;;16.05;100.00;96745.09;5042529;28;20203;-86
2022/10/26 10:30:59;;;;;;;5.03;2.90;;;;;;;16.01;100.00;96725.72;5040051;28;20237;-88
2022/10/26 10:33:37;;;;;;;5.17;2.70;;;;;;;16.14;100.00;96746.31;5052252;28;20202;-86
2022/10/26 10:36:10;;;;;;;6.27;2.53;;;;;;;16.26;100.00;96755.13;5039084;28;20202;-88
2022/10/26 10:38:41;;;;;;;4.00;2.20;;;;;;;16.28;100.00;96739.34;5030983;28;20214;-87
2022/10/26 10:41:17;;;;;;;3.73;2.17;;;;;;;16.42;100.00;96745.22;5032476;28;20348;-88
2022/10/26 10:43:49;;;;;;;4.00;2.43;;;;;;;16.47;100.00;96748.81;5035870;28;20234;-87
2022/10/26 10:46:26;;;;;;;4.23;2.50;;;;;;;16.49;100.00;96749.41;5050799;28;20219;-85
2022/10/26 10:49:02;;;;;;;4.50;2.40;;;;;;;16.60;100.00;96762.03;5051599;28;20267;-88
2022/10/26 10:51:36;;;;;;;5.07;2.27;;;;;;;16.67;100.00;96758.31;5031633;28;20293;-83
2022/10/26 10:54:05;;;;;;;5.47;2.27;;;;;;;16.61;100.00;96744.63;5047290;28;20210;-87
2022/10/26 10:56:41;;;;;;;3.50;1.70;;;;;;;16.67;100.00;96739.22;5041814;28;20195;-87
2022/10/26 10:59:28;;;;;;;3.80;2.13;;;;;;;16.78;100.00;96760.03;5032417;28;20218;-86
2022/10/26 11:02:16;;;;;;;2.30;1.73;;;;;;;16.87;100.00;96761.22;5037285;28;20264;-86
2022/10/26 11:05:00;;;;;;;4.90;2.00;;;;;;;16.92;100.00;96759.38;5045522;28;20233;-86
2022/10/26 11:07:30;;;;;;;3.77;2.10;;;;;;;16.94;100.00;96762.63;5041950;28;20221;-86
2022/10/26 11:10:02;;;;;;;3.03;2.00;;;;;;;16.95;100.00;96758.00;5035589;28;20231;-86
2022/10/26 11:12:34;;;;;;;2.63;1.67;;;;;;;16.99;100.00;96740.88;5053788;28;20237;-87
2022/10/26 11:15:06;;;;;;;5.00;1.77;;;;;;;17.14;100.00;96761.97;5039493;28;20298;-85
2022/10/26 11:17:38;;;;;;;3.23;1.83;;;;;;;17.13;100.00;96757.59;5039545;28;20195;-87
2022/10/26 11:20:12;;;;;;;1.83;1.60;;;;;;;17.13;100.00;96754.03;5058676;28;20206;-85
2022/10/26 11:22:45;;;;;;;5.63;1.83;;;;;;;17.14;100.00;96745.59;5043221;28;20217;-87
2022/10/26 11:25:18;;;;;;;5.30;1.80;;;;;;;17.08;100.00;96751.28;5052466;28;20213;-88
2022/10/26 11:27:50;;;;;;;3.93;1.70;;;;;;;17.09;100.00;96752.94;5037979;28;20310;-88
2022/10/26 11:30:24;;;;;;;4.60;1.80;;;;;;;17.10;100.00;96749.13;5055527;28;20206;-85
2022/10/26 11:32:56;;;;;;;2.90;1.70;;;;;;;17.17;100.00;96756.00;5043002;28;20292;-86
2022/10/26 11:35:30;;;;;;;4.90;1.80;;;;;;;17.21;100.00;96748.91;5044071;28;20214;-89
2022/10/26 11:38:02;;;;;;;3.63;2.10;;;;;;;17.24;100.00;96745.69;5043282;28;20359;-88
2022/10/26 11:40:36;;;;;;;5.50;1.60;;;;;;;17.29;100.00;96751.16;5035430;28;20211;-88
2022/10/26 11:43:12;;;;;;;5.10;2.67;;;;;;;17.28;100.00;96745.97;5055162;28;20225;-89
2022/10/26 11:45:43;;;;;;;3.17;2.17;;;;;;;17.28;100.00;96746.78;5056027;28;20205;-87